Time;durP1;ratioP1;P1;durP2;ratioP2;P2;SDS_P1;SDS_P2;PMS_P1;PMS_P2;Temp;Humidity;BMP_temperature;BMP_pressure;BME280_temperature;BME280_humidity;BME280_pressure;Samples;Min_cycle;Max_cycle;Signal;HPM_P1;HPM_P2
2020/12/25 00:01:47;;;;;;;13.90;12.40;;;8.00;99.90;;;;;;6226539;28;20988;-59
2020/12/25 00:04:51;;;;;;;13.37;11.50;;;8.00;99.90;;;;;;6226682;28;20969;-60
2020/12/25 00:07:53;;;;;;;13.20;11.63;;;8.10;99.90;;;;;;6226751;28;20483;-58
2020/12/25 00:10:55;;;;;;;12.60;10.63;;;8.00;99.90;;;;;;6226893;28;20494;-59
2020/12/25 00:13:57;;;;;;;13.93;11.57;;;8.00;99.90;;;;;;6226581;28;20476;-59
2020/12/25 00:17:00;;;;;;;11.23;9.93;;;8.00;99.90;;;;;;6227127;28;20478;-58
2020/12/25 00:20:04;;;;;;;13.47;12.07;;;7.90;99.90;;;;;;6227017;28;20805;-59
2020/12/25 00:23:06;;;;;;;12.67;10.33;;;7.90;99.90;;;;;;6226546;28;20476;-59
2020/12/25 00:26:09;;;;;;;13.43;11.63;;;7.90;99.90;;;;;;6226768;28;20483;-60
2020/12/25 00:29:11;;;;;;;14.57;11.07;;;7.80;99.90;;;;;;6226502;28;20468;-59
2020/12/25 00:32:14;;;;;;;13.20;11.80;;;7.80;99.90;;;;;;6226085;28;20472;-59
2020/12/25 00:35:16;;;;;;;13.73;11.60;;;7.70;99.90;;;;;;6226014;28;20994;-60
2020/12/25 00:38:19;;;;;;;14.67;10.77;;;7.80;99.90;;;;;;6226266;28;20526;-60
2020/12/25 00:41:21;;;;;;;13.53;10.83;;;7.80;99.90;;;;;;6225745;28;20472;-60
2020/12/25 00:44:23;;;;;;;11.93;10.43;;;7.80;99.90;;;;;;6225706;28;20483;-60
2020/12/25 00:47:27;;;;;;;12.70;10.50;;;7.70;99.90;;;;;;6222207;28;20490;-58
2020/12/25 00:50:29;;;;;;;13.73;11.77;;;7.80;99.90;;;;;;6225611;28;20495;-59
2020/12/25 00:53:31;;;;;;;12.87;10.90;;;7.80;99.90;;;;;;6225348;28;20448;-57
2020/12/25 00:56:33;;;;;;;12.57;11.23;;;7.80;99.90;;;;;;6225729;28;20545;-57
2020/12/25 00:59:38;;;;;;;11.00;9.90;;;7.90;99.90;;;;;;6225370;28;20916;-58
2020/12/25 01:02:42;;;;;;;12.10;10.33;;;7.90;99.90;;;;;;6226426;28;20454;-59
2020/12/25 01:05:44;;;;;;;11.27;10.17;;;7.90;99.90;;;;;;6225412;28;20449;-59
2020/12/25 01:08:49;;;;;;;11.20;9.03;;;7.90;99.90;;;;;;6225840;28;20487;-57
2020/12/25 01:11:51;;;;;;;10.30;9.40;;;7.90;99.90;;;;;;6226026;28;20539;-58
2020/12/25 01:14:53;;;;;;;9.17;8.10;;;7.90;99.90;;;;;;6225679;28;20474;-59
2020/12/25 01:17:56;;;;;;;10.17;9.20;;;7.80;99.90;;;;;;6225585;28;20482;-59
2020/12/25 01:20:59;;;;;;;10.80;9.37;;;7.90;99.90;;;;;;6225228;28;20491;-57
2020/12/25 01:24:01;;;;;;;10.50;9.40;;;7.80;99.90;;;;;;6225483;28;20460;-57
2020/12/25 01:27:03;;;;;;;12.20;10.30;;;7.80;99.90;;;;;;6225485;28;20471;-59
2020/12/25 01:30:06;;;;;;;11.40;10.30;;;7.80;99.90;;;;;;6225076;28;20823;-59
2020/12/25 01:33:09;;;;;;;12.70;11.40;;;7.80;99.90;;;;;;6225447;28;20476;-57
2020/12/25 01:36:12;;;;;;;11.73;10.17;;;7.90;99.90;;;;;;6225497;28;20488;-59
2020/12/25 01:39:14;;;;;;;11.57;10.37;;;7.90;99.90;;;;;;6225568;28;20482;-59
2020/12/25 01:42:16;;;;;;;11.73;10.47;;;7.90;99.90;;;;;;6225122;28;20476;-60
2020/12/25 01:45:18;;;;;;;12.13;10.57;;;7.90;99.90;;;;;;6225379;28;20467;-59
2020/12/25 01:48:25;;;;;;;12.07;10.87;;;8.00;99.90;;;;;;6215990;28;20464;-58
2020/12/25 01:51:28;;;;;;;13.27;11.20;;;7.90;99.90;;;;;;6224804;28;20486;-60
2020/12/25 01:54:31;;;;;;;12.37;11.03;;;8.00;99.90;;;;;;6224795;28;20472;-59
2020/12/25 01:57:34;;;;;;;13.17;11.70;;;8.00;99.90;;;;;;6225185;28;20475;-60
2020/12/25 02:00:37;;;;;;;13.47;12.07;;;8.00;99.90;;;;;;6225087;28;20475;-60
2020/12/25 02:03:41;;;;;;;11.00;9.80;;;8.00;99.90;;;;;;6225075;28;20819;-60
2020/12/25 02:06:44;;;;;;;13.47;11.20;;;8.00;99.90;;;;;;6225524;28;20491;-60
2020/12/25 02:09:46;;;;;;;16.00;11.87;;;8.00;99.90;;;;;;6229365;28;20471;-60
2020/12/25 02:12:48;;;;;;;11.77;10.27;;;8.00;99.90;;;;;;6230429;28;20482;-59
2020/12/25 02:15:51;;;;;;;11.20;10.13;;;8.00;99.90;;;;;;6229939;28;20486;-58
2020/12/25 02:18:54;;;;;;;12.70;10.80;;;8.10;99.90;;;;;;6230102;28;20476;-58
2020/12/25 02:21:57;;;;;;;12.90;11.37;;;8.20;99.90;;;;;;6229282;28;20476;-58
2020/12/25 02:24:59;;;;;;;12.33;11.07;;;8.20;99.90;;;;;;6229537;28;20472;-58
2020/12/25 02:28:01;;;;;;;12.63;10.47;;;8.10;99.90;;;;;;6229483;28;20464;-58
2020/12/25 02:31:04;;;;;;;12.83;11.43;;;8.10;99.90;;;;;;6229306;28;20491;-58
2020/12/25 02:34:06;;;;;;;12.67;10.73;;;8.10;99.90;;;;;;6229006;28;20967;-60
2020/12/25 02:37:09;;;;;;;12.97;11.60;;;8.10;99.90;;;;;;6229126;28;20812;-60
2020/12/25 02:40:11;;;;;;;14.00;11.03;;;8.20;99.90;;;;;;6228860;28;20811;-58
2020/12/25 02:43:13;;;;;;;12.70;10.93;;;8.10;99.90;;;;;;6229056;28;20472;-58
2020/12/25 02:46:19;;;;;;;12.33;10.90;;;8.10;99.90;;;;;;6228766;28;20483;-60
2020/12/25 02:49:21;;;;;;;12.17;10.83;;;8.10;99.90;;;;;;6228865;28;20480;-60
2020/12/25 02:52:26;;;;;;;15.33;11.17;;;8.20;99.90;;;;;;6228754;28;21043;-62
2020/12/25 02:55:28;;;;;;;13.57;10.47;;;8.20;99.90;;;;;;6228362;28;20471;-60
2020/12/25 02:58:30;;;;;;;13.57;10.60;;;8.20;99.90;;;;;;6228505;28;20472;-58
2020/12/25 03:01:33;;;;;;;12.13;10.57;;;8.20;99.90;;;;;;6228466;28;20956;-60
2020/12/25 03:04:35;;;;;;;14.27;11.93;;;8.20;99.90;;;;;;6228439;28;20471;-60
2020/12/25 03:07:39;;;;;;;15.13;11.97;;;8.10;99.90;;;;;;6228214;28;20472;-58
2020/12/25 03:10:41;;;;;;;13.47;10.90;;;8.20;99.90;;;;;;6228064;28;20486;-58
2020/12/25 03:13:44;;;;;;;15.13;11.57;;;8.10;99.90;;;;;;6228894;28;20468;-60
2020/12/25 03:16:47;;;;;;;12.23;10.93;;;8.20;99.90;;;;;;6228129;28;20472;-60
2020/12/25 03:19:49;;;;;;;17.90;12.80;;;8.20;99.90;;;;;;6226684;28;20492;-60
2020/12/25 03:22:52;;;;;;;15.07;11.07;;;8.20;99.90;;;;;;6227932;28;20467;-59
2020/12/25 03:25:54;;;;;;;14.40;11.50;;;8.20;99.90;;;;;;6228311;28;20827;-59
2020/12/25 03:28:56;;;;;;;13.50;11.80;;;8.10;99.90;;;;;;6228093;28;20977;-59
2020/12/25 03:31:58;;;;;;;12.33;10.93;;;8.10;99.90;;;;;;6227605;28;20483;-60
2020/12/25 03:35:00;;;;;;;11.90;10.30;;;8.10;99.90;;;;;;6227893;28;20482;-60
2020/12/25 03:38:03;;;;;;;13.80;10.70;;;8.10;99.90;;;;;;6227458;28;20480;-59
2020/12/25 03:41:06;;;;;;;14.57;10.40;;;8.10;99.90;;;;;;6227337;28;20480;-60
2020/12/25 03:44:08;;;;;;;11.33;9.80;;;8.10;99.90;;;;;;6227529;28;20467;-59
2020/12/25 03:47:12;;;;;;;13.67;12.30;;;8.10;99.90;;;;;;6227596;28;20487;-59
2020/12/25 03:50:15;;;;;;;13.10;11.77;;;8.10;99.90;;;;;;6227409;28;20484;-60
2020/12/25 03:53:20;;;;;;;12.70;10.70;;;8.10;99.90;;;;;;6227755;28;20483;-59
2020/12/25 03:56:22;;;;;;;18.87;14.07;;;8.10;99.90;;;;;;6218787;28;20481;-59
2020/12/25 03:59:24;;;;;;;14.07;12.67;;;8.20;99.90;;;;;;6227220;28;20524;-59
2020/12/25 04:02:27;;;;;;;12.20;10.90;;;8.10;99.90;;;;;;6226750;28;20480;-57
2020/12/25 04:05:29;;;;;;;11.57;10.30;;;8.10;99.90;;;;;;6227077;28;20784;-57
2020/12/25 04:08:32;;;;;;;12.43;10.53;;;8.20;99.90;;;;;;6227419;28;20444;-59
2020/12/25 04:11:34;;;;;;;10.77;8.90;;;8.10;99.90;;;;;;6226893;28;20488;-58
2020/12/25 04:14:36;;;;;;;11.07;9.23;;;8.20;99.90;;;;;;6227061;28;20448;-57
2020/12/25 04:17:38;;;;;;;17.50;10.10;;;8.20;99.90;;;;;;6226731;28;20449;-59
2020/12/25 04:20:40;;;;;;;10.03;9.00;;;8.10;99.90;;;;;;6226362;28;20503;-60
2020/12/25 04:23:43;;;;;;;10.90;8.47;;;8.10;99.90;;;;;;6226369;28;20448;-60
2020/12/25 04:26:46;;;;;;;10.87;9.50;;;8.10;99.90;;;;;;6226268;28;20458;-59
2020/12/25 04:29:49;;;;;;;12.40;10.27;;;8.10;99.90;;;;;;6226500;28;20461;-58
2020/12/25 04:32:51;;;;;;;11.73;9.00;;;8.10;99.90;;;;;;6226159;28;20916;-58
2020/12/25 04:35:54;;;;;;;9.70;8.77;;;8.10;99.90;;;;;;6226758;28;20478;-60
2020/12/25 04:38:57;;;;;;;9.37;8.40;;;8.10;99.90;;;;;;6226031;28;20808;-58
2020/12/25 04:42:00;;;;;;;10.47;9.37;;;8.10;99.90;;;;;;6226029;28;20472;-59
2020/12/25 04:45:02;;;;;;;12.60;10.20;;;8.10;99.90;;;;;;6226235;28;20790;-59
2020/12/25 04:48:05;;;;;;;10.77;8.90;;;8.10;99.90;;;;;;6226107;28;20610;-59
2020/12/25 04:51:07;;;;;;;9.63;8.60;;;8.10;99.90;;;;;;6225502;28;20814;-59
2020/12/25 04:54:11;;;;;;;12.07;10.17;;;8.10;99.90;;;;;;6225925;28;20472;-59
2020/12/25 04:57:13;;;;;;;11.50;9.87;;;8.20;99.90;;;;;;6225662;28;20480;-59
2020/12/25 05:00:19;;;;;;;11.20;8.90;;;8.10;99.90;;;;;;6225865;28;20480;-59
2020/12/25 05:03:21;;;;;;;10.43;9.43;;;8.10;99.90;;;;;;6225772;28;20472;-59
2020/12/25 05:06:24;;;;;;;9.90;8.90;;;8.10;99.90;;;;;;6225833;28;20468;-59
2020/12/25 05:09:29;;;;;;;11.87;9.40;;;8.00;99.90;;;;;;6226012;28;20464;-57
2020/12/25 05:12:33;;;;;;;12.13;9.30;;;8.00;99.90;;;;;;6225719;28;20588;-58
2020/12/25 05:15:35;;;;;;;11.60;9.80;;;7.90;99.90;;;;;;6225741;28;20483;-60
2020/12/25 05:18:41;;;;;;;10.57;8.50;;;7.90;99.90;;;;;;6225330;28;20804;-59
2020/12/25 05:21:45;;;;;;;13.50;9.90;;;7.90;99.90;;;;;;6225604;28;20471;-59
2020/12/25 05:24:48;;;;;;;12.60;10.30;;;7.90;99.90;;;;;;6226045;28;21003;-59
2020/12/25 05:27:55;;;;;;;10.50;9.50;;;7.80;99.90;;;;;;6225738;28;20464;-59
2020/12/25 05:30:59;;;;;;;7.87;7.07;;;7.80;99.90;;;;;;6225138;28;20480;-57
2020/12/25 05:34:01;;;;;;;8.20;7.20;;;7.60;99.90;;;;;;6225633;28;20460;-58
2020/12/25 05:37:04;;;;;;;8.20;7.40;;;7.50;99.90;;;;;;6225803;28;20468;-58
2020/12/25 05:40:08;;;;;;;10.37;9.23;;;7.50;99.90;;;;;;6225230;28;20476;-58
2020/12/25 05:43:14;;;;;;;9.80;8.80;;;7.50;99.90;;;;;;6229053;28;20811;-60
2020/12/25 05:46:16;;;;;;;8.23;7.50;;;7.50;99.90;;;;;;6233481;28;20805;-58
2020/12/25 05:49:19;;;;;;;10.83;9.73;;;7.50;99.90;;;;;;6233785;28;20487;-58
2020/12/25 05:52:21;;;;;;;9.03;7.97;;;7.50;99.90;;;;;;6232898;28;20487;-58
2020/12/25 05:55:25;;;;;;;8.37;7.67;;;7.50;99.90;;;;;;6233427;28;20815;-58
2020/12/25 05:58:31;;;;;;;9.00;8.20;;;7.50;99.90;;;;;;6233400;28;20479;-57
2020/12/25 06:01:34;;;;;;;10.07;9.03;;;7.50;99.90;;;;;;6224154;28;20987;-58
2020/12/25 06:04:37;;;;;;;10.37;9.37;;;7.30;99.90;;;;;;6232905;28;20476;-60
2020/12/25 06:07:48;;;;;;;11.10;10.00;;;7.30;99.90;;;;;;6232879;28;20478;-60
2020/12/25 06:11:00;;;;;;;8.03;7.33;;;7.30;99.90;;;;;;6233114;28;20480;-59
2020/12/25 06:14:02;;;;;;;8.90;8.07;;;7.40;99.90;;;;;;6233745;28;20476;-59
2020/12/25 06:17:08;;;;;;;8.73;7.83;;;7.50;99.90;;;;;;6232852;28;20475;-57
2020/12/25 06:20:14;;;;;;;8.60;7.70;;;7.60;99.90;;;;;;6233386;28;20525;-57
2020/12/25 06:23:17;;;;;;;8.00;7.30;;;7.60;99.90;;;;;;6233268;28;20468;-57
2020/12/25 06:26:20;;;;;;;9.83;8.17;;;7.60;99.90;;;;;;6233012;28;20477;-57
2020/12/25 06:29:23;;;;;;;8.90;7.47;;;7.60;99.90;;;;;;6233305;28;20948;-57
2020/12/25 06:32:26;;;;;;;13.23;9.03;;;7.60;99.90;;;;;;6232426;28;20514;-59
2020/12/25 06:35:30;;;;;;;9.60;8.33;;;7.60;99.90;;;;;;6232684;28;20463;-58
2020/12/25 06:38:42;;;;;;;10.63;7.27;;;7.60;99.90;;;;;;6232508;28;20444;-58
2020/12/25 06:41:47;;;;;;;9.20;8.33;;;7.60;99.90;;;;;;6232234;28;20808;-59
2020/12/25 06:44:50;;;;;;;8.93;7.97;;;7.60;99.90;;;;;;6232837;28;20467;-58
2020/12/25 06:48:02;;;;;;;8.47;7.60;;;7.60;99.90;;;;;;6232887;28;20479;-58
2020/12/25 06:51:11;;;;;;;8.10;7.30;;;7.60;99.90;;;;;;6232590;28;20643;-58
2020/12/25 06:54:17;;;;;;;8.50;7.70;;;7.60;99.90;;;;;;6231185;28;20476;-59
2020/12/25 06:57:25;;;;;;;8.67;7.23;;;7.60;99.90;;;;;;6228991;28;20482;-58
2020/12/25 07:00:27;;;;;;;8.90;8.10;;;7.60;99.90;;;;;;6228458;28;20827;-57
2020/12/25 07:03:34;;;;;;;8.53;7.73;;;7.60;99.90;;;;;;6228845;28;20611;-59
2020/12/25 07:06:36;;;;;;;9.50;8.50;;;7.60;99.90;;;;;;6228680;28;20483;-59
2020/12/25 07:09:43;;;;;;;9.23;8.27;;;7.60;99.90;;;;;;6228272;28;20804;-60
2020/12/25 07:12:46;;;;;;;8.80;8.00;;;7.60;99.90;;;;;;6228368;28;20476;-60
2020/12/25 07:15:48;;;;;;;10.50;8.00;;;7.50;99.90;;;;;;6228340;28;20995;-60
2020/12/25 07:18:51;;;;;;;9.17;8.27;;;7.40;99.90;;;;;;6228562;28;20479;-60
2020/12/25 07:21:53;;;;;;;7.53;6.73;;;7.30;99.90;;;;;;6228067;28;20490;-60
2020/12/25 07:24:55;;;;;;;11.23;8.40;;;7.20;99.90;;;;;;6228226;28;20472;-59
2020/12/25 07:27:58;;;;;;;9.10;8.13;;;7.20;99.90;;;;;;6228038;28;20495;-59
2020/12/25 07:31:00;;;;;;;8.47;7.50;;;7.30;99.90;;;;;;6227824;28;20468;-59
2020/12/25 07:34:03;;;;;;;8.53;7.73;;;7.40;99.90;;;;;;6227965;28;20476;-60
2020/12/25 07:37:07;;;;;;;9.57;8.57;;;7.40;99.90;;;;;;6228135;28;20468;-61
2020/12/25 07:40:11;;;;;;;8.37;7.30;;;7.40;99.90;;;;;;6227532;28;20479;-61
2020/12/25 07:43:16;;;;;;;8.87;7.87;;;7.40;99.90;;;;;;6227595;28;20491;-58
2020/12/25 07:46:18;;;;;;;9.53;8.10;;;7.50;99.90;;;;;;6227278;28;20475;-60
2020/12/25 07:49:20;;;;;;;7.93;7.13;;;7.50;99.90;;;;;;6227566;28;20476;-60
2020/12/25 07:52:23;;;;;;;7.63;6.83;;;7.50;99.90;;;;;;6227264;28;20480;-60
2020/12/25 07:55:47;;;;;;;7.70;7.00;;;7.50;99.90;;;;;;6227581;28;20484;-59
2020/12/25 07:58:52;;;;;;;9.73;7.80;;;7.60;99.90;;;;;;6226983;28;20841;-59
2020/12/25 08:01:57;;;;;;;7.70;6.97;;;7.60;99.90;;;;;;6227050;28;20855;-59
2020/12/25 08:05:08;;;;;;;8.57;7.67;;;7.60;99.90;;;;;;6226521;28;20472;-58
2020/12/25 08:08:13;;;;;;;8.87;7.27;;;7.70;99.90;;;;;;6223283;28;20483;-58
2020/12/25 08:11:18;;;;;;;9.50;8.60;;;7.70;99.90;;;;;;6226581;28;20476;-58
2020/12/25 08:14:22;;;;;;;8.73;7.93;;;7.80;99.90;;;;;;6226807;28;20831;-60
2020/12/25 08:17:24;;;;;;;8.13;6.40;;;7.80;99.90;;;;;;6227234;28;20495;-59
2020/12/25 08:20:26;;;;;;;8.10;7.30;;;7.80;99.90;;;;;;6226604;28;20475;-59
2020/12/25 08:23:33;;;;;;;8.33;7.43;;;7.90;99.90;;;;;;6226194;28;20931;-60
2020/12/25 08:26:36;;;;;;;9.37;7.47;;;7.90;99.90;;;;;;6226664;28;20454;-58
2020/12/25 08:29:40;;;;;;;7.80;6.83;;;8.00;99.90;;;;;;6226991;28;20947;-59
2020/12/25 08:32:43;;;;;;;10.50;7.90;;;8.00;99.90;;;;;;6226545;28;20480;-59
2020/12/25 08:35:45;;;;;;;7.27;6.50;;;8.10;99.90;;;;;;6226190;28;20451;-59
2020/12/25 08:38:47;;;;;;;8.83;8.03;;;8.20;99.90;;;;;;6226409;28;20467;-59
2020/12/25 08:41:53;;;;;;;8.50;7.70;;;8.30;99.90;;;;;;6225837;28;20471;-59
2020/12/25 08:44:57;;;;;;;9.80;8.80;;;8.20;99.90;;;;;;6226096;28;20932;-61
2020/12/25 08:48:12;;;;;;;10.33;9.17;;;8.20;99.90;;;;;;6226006;28;20482;-59
2020/12/25 08:51:16;;;;;;;10.17;9.23;;;8.30;99.90;;;;;;6225898;28;20480;-60
2020/12/25 08:54:24;;;;;;;12.63;10.63;;;8.40;99.90;;;;;;6226525;28;20460;-58
2020/12/25 08:57:29;;;;;;;11.00;9.90;;;8.50;99.90;;;;;;6226017;28;20826;-57
2020/12/25 09:00:32;;;;;;;10.83;9.53;;;8.70;99.90;;;;;;6226309;28;20464;-59
2020/12/25 09:03:40;;;;;;;11.67;10.30;;;8.80;99.90;;;;;;6226159;28;20468;-59
2020/12/25 09:06:43;;;;;;;14.70;11.50;;;9.00;99.90;;;;;;6226064;28;20607;-58
2020/12/25 09:10:02;;;;;;;11.53;10.33;;;9.10;99.90;;;;;;6225576;28;20881;-58
2020/12/25 09:13:04;;;;;;;12.10;10.03;;;9.30;99.90;;;;;;6226031;28;20472;-58
2020/12/25 09:16:08;;;;;;;11.13;9.90;;;9.40;99.90;;;;;;6225943;28;20476;-58
2020/12/25 09:19:10;;;;;;;12.43;10.97;;;9.50;99.90;;;;;;6225079;28;20476;-59
2020/12/25 09:22:12;;;;;;;9.37;8.47;;;9.50;99.90;;;;;;6225799;28;20483;-59
2020/12/25 09:25:14;;;;;;;9.23;7.73;;;9.40;99.90;;;;;;6226003;28;20482;-59
2020/12/25 09:28:16;;;;;;;7.83;7.03;;;9.30;99.90;;;;;;6225311;28;20468;-59
2020/12/25 09:31:19;;;;;;;8.37;7.57;;;9.10;99.90;;;;;;6224802;28;20818;-59
2020/12/25 09:34:22;;;;;;;8.23;7.43;;;9.00;99.90;;;;;;6225223;28;20476;-59
2020/12/25 09:37:24;;;;;;;7.53;6.83;;;8.90;99.90;;;;;;6224983;28;20484;-59
2020/12/25 09:40:27;;;;;;;6.67;5.93;;;8.90;99.90;;;;;;6224872;28;20491;-59
2020/12/25 09:43:29;;;;;;;6.90;5.97;;;8.60;99.90;;;;;;6224935;28;20804;-58
2020/12/25 09:46:32;;;;;;;5.60;5.00;;;8.60;99.90;;;;;;6225343;28;20478;-58
2020/12/25 09:49:35;;;;;;;4.33;3.90;;;8.70;99.90;;;;;;6225373;28;20479;-58
2020/12/25 09:52:37;;;;;;;4.47;4.00;;;8.90;99.90;;;;;;6225137;28;20480;-59
2020/12/25 09:55:41;;;;;;;4.07;3.67;;;8.80;99.90;;;;;;6225163;28;20498;-59
2020/12/25 09:58:44;;;;;;;3.93;3.60;;;8.70;99.90;;;;;;6225451;28;20634;-60
2020/12/25 10:01:47;;;;;;;3.00;2.70;;;8.70;99.90;;;;;;6224751;28;20555;-60
2020/12/25 10:04:50;;;;;;;2.93;2.73;;;8.70;99.90;;;;;;6225474;28;20476;-59
2020/12/25 10:07:52;;;;;;;2.53;2.33;;;8.70;99.90;;;;;;6224904;28;20468;-60
2020/12/25 10:10:54;;;;;;;2.13;2.00;;;8.70;99.90;;;;;;6224682;28;20496;-59
2020/12/25 10:13:57;;;;;;;2.57;2.20;;;8.80;99.90;;;;;;6220374;28;20476;-60
2020/12/25 10:17:02;;;;;;;2.40;2.30;;;8.60;99.90;;;;;;6224499;28;20483;-60
2020/12/25 10:20:04;;;;;;;1.70;1.60;;;8.50;99.90;;;;;;6224920;28;20476;-60
2020/12/25 10:23:06;;;;;;;2.90;2.70;;;8.40;99.90;;;;;;6224802;28;20550;-60
2020/12/25 10:26:11;;;;;;;1.80;1.70;;;8.40;99.90;;;;;;6224789;28;20906;-60
2020/12/25 10:29:13;;;;;;;2.93;2.73;;;8.50;99.90;;;;;;6226419;28;20468;-60
2020/12/25 10:32:16;;;;;;;2.30;2.10;;;8.60;99.90;;;;;;6228990;28;20482;-60
2020/12/25 10:35:18;;;;;;;2.23;1.83;;;8.60;99.90;;;;;;6229337;28;20513;-59
2020/12/25 10:38:20;;;;;;;2.00;1.90;;;8.70;99.90;;;;;;6229204;28;20503;-60
2020/12/25 10:41:30;;;;;;;1.83;1.73;;;8.80;99.90;;;;;;6228680;28;20524;-60
2020/12/25 10:44:32;;;;;;;2.53;2.30;;;8.80;99.90;;;;;;6228935;28;20455;-60
2020/12/25 10:47:35;;;;;;;2.47;1.47;;;8.80;99.90;;;;;;6228607;28;20459;-60
2020/12/25 10:50:37;;;;;;;1.80;1.70;;;8.80;99.90;;;;;;6228816;28;20466;-60
2020/12/25 10:53:40;;;;;;;1.60;1.50;;;8.70;99.90;;;;;;6228686;28;20490;-60
2020/12/25 10:56:44;;;;;;;1.50;1.40;;;8.70;99.90;;;;;;6228847;28;20455;-60
2020/12/25 10:59:58;;;;;;;1.60;1.50;;;8.80;99.90;;;;;;6228234;28;20495;-60
2020/12/25 11:03:01;;;;;;;1.73;1.63;;;8.70;99.90;;;;;;6228763;28;20475;-60
2020/12/25 11:06:03;;;;;;;1.00;0.90;;;8.50;99.90;;;;;;6228591;28;20482;-60
2020/12/25 11:09:06;;;;;;;1.90;1.80;;;8.60;99.90;;;;;;6228122;28;20487;-59
2020/12/25 11:12:08;;;;;;;1.77;1.50;;;8.40;99.90;;;;;;6227724;28;20472;-61
2020/12/25 11:15:11;;;;;;;7.27;4.67;;;8.50;99.90;;;;;;6223114;28;20920;-60
2020/12/25 11:18:14;;;;;;;5.97;4.27;;;8.40;99.90;;;;;;6227598;28;20988;-60
2020/12/25 11:21:21;;;;;;;3.73;2.80;;;8.30;99.90;;;;;;6228025;28;20811;-59
2020/12/25 11:24:23;;;;;;;2.93;2.07;;;8.20;99.90;;;;;;6228413;28;20547;-59
2020/12/25 11:27:25;;;;;;;3.50;3.20;;;8.20;99.90;;;;;;6228583;28;20498;-60
2020/12/25 11:30:27;;;;;;;4.50;2.53;;;8.10;99.90;;;;;;6227825;28;20812;-59
2020/12/25 11:33:32;;;;;;;1.83;1.63;;;8.00;99.90;;;;;;6227569;28;20843;-59
2020/12/25 11:36:36;;;;;;;1.93;1.83;;;8.00;99.90;;;;;;6227662;28;20814;-60
2020/12/25 11:39:39;;;;;;;2.73;2.00;;;8.00;99.90;;;;;;6227123;28;20825;-60
2020/12/25 11:42:41;;;;;;;1.97;1.87;;;7.90;99.90;;;;;;6226838;28;20480;-60
2020/12/25 11:45:43;;;;;;;2.10;1.90;;;7.90;99.90;;;;;;6227622;28;20483;-60
2020/12/25 11:48:49;;;;;;;2.63;1.57;;;7.90;99.90;;;;;;6227420;28;20529;-60
2020/12/25 11:51:56;;;;;;;1.77;1.67;;;8.00;99.90;;;;;;6227187;28;20485;-60
2020/12/25 11:54:59;;;;;;;2.13;1.93;;;8.10;99.90;;;;;;6227295;28;20471;-60
2020/12/25 11:58:02;;;;;;;2.60;2.23;;;8.10;99.90;;;;;;6227382;28;20479;-60
2020/12/25 12:01:04;;;;;;;1.90;1.80;;;8.10;99.90;;;;;;6226991;28;20476;-60
2020/12/25 12:04:07;;;;;;;1.73;1.63;;;8.20;99.90;;;;;;6227269;28;20473;-60
2020/12/25 12:07:09;;;;;;;1.57;1.47;;;8.30;99.90;;;;;;6227458;28;20471;-60
2020/12/25 12:10:11;;;;;;;2.50;2.30;;;8.40;99.90;;;;;;6227010;28;20480;-59
2020/12/25 12:13:13;;;;;;;1.87;1.70;;;8.40;99.90;;;;;;6227209;28;20483;-60
2020/12/25 12:16:17;;;;;;;2.20;2.10;;;8.50;99.90;;;;;;6226956;28;20472;-60
2020/12/25 12:19:20;;;;;;;1.97;1.87;;;8.40;99.90;;;;;;6222210;28;20783;-58
2020/12/25 12:22:22;;;;;;;1.80;1.70;;;8.30;99.90;;;;;;6226514;28;20483;-59
2020/12/25 12:25:24;;;;;;;1.80;1.67;;;8.10;99.90;;;;;;6226496;28;20472;-59
2020/12/25 12:28:27;;;;;;;1.30;1.30;;;8.10;99.90;;;;;;6226422;28;20476;-60
2020/12/25 12:31:29;;;;;;;1.77;1.67;;;7.70;99.90;;;;;;6226339;28;20476;-60
2020/12/25 12:34:32;;;;;;;2.10;2.00;;;7.70;99.90;;;;;;6226921;28;20789;-60
2020/12/25 12:37:34;;;;;;;2.63;2.23;;;7.70;99.90;;;;;;6226812;28;20476;-60
2020/12/25 12:40:37;;;;;;;2.83;2.63;;;7.70;99.90;;;;;;6226096;28;20480;-59
2020/12/25 12:43:39;;;;;;;3.57;3.00;;;7.60;99.90;;;;;;6226400;28;20476;-60
2020/12/25 12:46:42;;;;;;;6.03;4.90;;;7.40;99.90;;;;;;6226128;28;20968;-60
2020/12/25 12:49:45;;;;;;;3.27;3.07;;;7.20;99.90;;;;;;6226652;28;20479;-60
2020/12/25 12:52:47;;;;;;;2.50;2.40;;;7.10;99.90;;;;;;6225403;28;20484;-60
2020/12/25 12:55:50;;;;;;;3.57;3.27;;;7.00;99.90;;;;;;6225949;28;20472;-62
2020/12/25 12:58:52;;;;;;;6.57;2.70;;;7.00;99.90;;;;;;6225871;28;20472;-59
2020/12/25 13:01:54;;;;;;;2.50;2.40;;;7.10;99.90;;;;;;6226029;28;20478;-58
2020/12/25 13:04:58;;;;;;;3.67;2.40;;;7.30;99.90;;;;;;6226278;28;20472;-59
2020/12/25 13:08:00;;;;;;;2.83;2.63;;;7.30;99.90;;;;;;6226166;28;20490;-58
2020/12/25 13:11:02;;;;;;;3.20;2.77;;;7.30;99.90;;;;;;6225626;28;20476;-59
2020/12/25 13:14:05;;;;;;;3.27;3.00;;;7.50;99.90;;;;;;6225227;28;20840;-58
2020/12/25 13:17:09;;;;;;;2.67;2.47;;;7.40;99.90;;;;;;6225337;28;20973;-58
2020/12/25 13:20:12;;;;;;;3.03;2.73;;;7.40;99.90;;;;;;6225475;28;20482;-58
2020/12/25 13:23:15;;;;;;;3.07;2.87;;;7.40;99.90;;;;;;6225718;28;20468;-59
2020/12/25 13:26:21;;;;;;;2.87;2.70;;;7.40;99.90;;;;;;6221346;28;20491;-60
2020/12/25 13:29:24;;;;;;;3.80;3.40;;;7.40;99.90;;;;;;6226081;28;20605;-60
2020/12/25 13:32:26;;;;;;;3.73;3.40;;;7.30;99.90;;;;;;6225296;28;20949;-58
2020/12/25 13:35:29;;;;;;;3.70;3.40;;;6.90;99.90;;;;;;6225485;28;20498;-60
2020/12/25 13:38:32;;;;;;;5.90;3.13;;;6.70;99.90;;;;;;6225020;28;20468;-60
2020/12/25 13:41:34;;;;;;;4.50;4.10;;;6.70;99.90;;;;;;6224588;28;20483;-58
2020/12/25 13:44:36;;;;;;;3.40;3.20;;;6.60;99.90;;;;;;6225347;28;20586;-59
2020/12/25 13:47:39;;;;;;;3.60;3.30;;;6.70;99.90;;;;;;6225000;28;20858;-59
2020/12/25 13:50:42;;;;;;;3.70;3.50;;;6.70;99.90;;;;;;6225166;28;20484;-59
2020/12/25 13:53:44;;;;;;;3.37;3.17;;;6.80;99.90;;;;;;6225225;28;20491;-61
2020/12/25 13:56:47;;;;;;;3.63;3.33;;;6.70;99.90;;;;;;6225339;28;20470;-59
2020/12/25 13:59:50;;;;;;;3.80;3.50;;;6.60;99.90;;;;;;6225091;28;20444;-59
2020/12/25 14:02:52;;;;;;;3.40;3.10;;;6.70;99.90;;;;;;6225226;28;20467;-59
2020/12/25 14:05:56;;;;;;;4.20;3.80;;;6.60;99.90;;;;;;6229628;28;20452;-59
2020/12/25 14:08:58;;;;;;;3.57;3.30;;;6.70;99.90;;;;;;6230082;28;20479;-60
2020/12/25 14:12:01;;;;;;;3.30;3.10;;;6.80;99.90;;;;;;6229843;28;20471;-59
2020/12/25 14:15:03;;;;;;;5.27;4.80;;;6.90;99.90;;;;;;6229603;28;20558;-59
2020/12/25 14:18:05;;;;;;;3.93;3.60;;;6.90;99.90;;;;;;6229731;28;20475;-61
2020/12/25 14:21:08;;;;;;;4.80;4.40;;;6.90;99.90;;;;;;6229626;28;20512;-58
2020/12/25 14:24:11;;;;;;;4.33;3.93;;;7.00;99.90;;;;;;6229284;28;20482;-58
2020/12/25 14:27:15;;;;;;;6.03;3.67;;;7.10;99.90;;;;;;6229368;28;20487;-59
2020/12/25 14:30:17;;;;;;;4.20;3.43;;;7.10;99.90;;;;;;6229350;28;20510;-59
2020/12/25 14:33:20;;;;;;;3.87;3.60;;;7.00;99.90;;;;;;6229119;28;20547;-59
2020/12/25 14:36:23;;;;;;;4.70;4.10;;;6.90;99.90;;;;;;6229357;28;20471;-57
2020/12/25 14:39:25;;;;;;;6.87;4.10;;;6.90;99.90;;;;;;6229074;28;20487;-59
2020/12/25 14:42:27;;;;;;;7.60;6.80;;;6.90;99.90;;;;;;6228822;28;20478;-60
2020/12/25 14:45:30;;;;;;;4.50;4.10;;;6.90;99.90;;;;;;6229062;28;20983;-60
2020/12/25 14:48:34;;;;;;;6.77;5.47;;;6.70;99.90;;;;;;6229165;28;20482;-60
2020/12/25 14:51:38;;;;;;;8.33;5.43;;;6.70;99.90;;;;;;6228916;28;20515;-60
2020/12/25 14:54:40;;;;;;;9.10;6.40;;;6.80;99.90;;;;;;6228687;28;20565;-60
2020/12/25 14:57:42;;;;;;;5.97;5.13;;;6.80;99.90;;;;;;6229138;28;20472;-59
2020/12/25 15:00:45;;;;;;;7.97;7.20;;;6.80;99.90;;;;;;6228610;28;21002;-58
2020/12/25 15:03:47;;;;;;;12.00;9.43;;;6.90;99.90;;;;;;6229008;28;20496;-59
2020/12/25 15:06:50;;;;;;;5.53;5.03;;;6.90;99.90;;;;;;6228689;28;20482;-59
2020/12/25 15:09:53;;;;;;;5.37;4.87;;;6.80;99.90;;;;;;6228624;28;20483;-60
2020/12/25 15:12:55;;;;;;;5.07;4.57;;;6.80;99.90;;;;;;6228789;28;20483;-59
2020/12/25 15:15:57;;;;;;;4.70;4.23;;;6.80;99.90;;;;;;6228551;28;20483;-59
2020/12/25 15:19:00;;;;;;;5.43;4.97;;;6.80;99.90;;;;;;6227929;28;20809;-60
2020/12/25 15:22:03;;;;;;;4.70;4.30;;;6.80;99.90;;;;;;6227963;28;20475;-59
2020/12/25 15:25:05;;;;;;;5.80;5.30;;;6.90;99.90;;;;;;6228196;28;20469;-63
2020/12/25 15:28:07;;;;;;;4.80;4.40;;;6.80;99.90;;;;;;6218539;28;20475;-60
2020/12/25 15:31:11;;;;;;;4.30;4.00;;;6.90;99.90;;;;;;6227684;28;20816;-60
2020/12/25 15:34:16;;;;;;;5.53;5.03;;;6.80;99.90;;;;;;6228082;28;20476;-60
2020/12/25 15:37:19;;;;;;;5.83;5.27;;;6.80;99.90;;;;;;6227895;28;20487;-59
2020/12/25 15:40:21;;;;;;;4.63;4.30;;;6.80;99.90;;;;;;6227388;28;20491;-59
2020/12/25 15:43:24;;;;;;;4.90;4.47;;;6.80;99.90;;;;;;6227923;28;20482;-58
2020/12/25 15:46:26;;;;;;;5.40;4.90;;;6.70;99.90;;;;;;6227469;28;20829;-61
2020/12/25 15:49:32;;;;;;;5.13;4.63;;;6.60;99.90;;;;;;6227322;28;20496;-60
2020/12/25 15:52:35;;;;;;;6.10;5.50;;;6.60;99.90;;;;;;6227483;28;20499;-59
2020/12/25 15:55:37;;;;;;;6.00;5.40;;;6.50;99.90;;;;;;6227156;28;20799;-59
2020/12/25 15:58:40;;;;;;;5.97;5.37;;;6.60;99.90;;;;;;6226963;28;21054;-59